createdAt,value
2023-05-09T00:00:57.988Z,16.26
2023-05-09T00:06:03.086Z,16.24
2023-05-09T00:11:06.626Z,16.16
2023-05-09T00:16:10.462Z,16.00
2023-05-09T00:21:15.519Z,16.14
2023-05-09T00:26:19.133Z,15.59
2023-05-09T00:31:23.820Z,16.09
2023-05-09T00:36:28.597Z,16.14
2023-05-09T00:41:31.999Z,15.47
2023-05-09T00:46:35.524Z,15.21
2023-05-09T00:51:42.190Z,15.95
2023-05-09T00:56:46.203Z,15.82
2023-05-09T01:01:49.680Z,15.87
2023-05-09T01:07:02.708Z,16.10
2023-05-09T01:12:14.784Z,15.55
2023-05-09T01:17:27.089Z,16.12
2023-05-09T01:22:36.038Z,15.78
2023-05-09T01:27:47.347Z,15.83
2023-05-09T01:32:54.974Z,16.01
2023-05-09T01:37:59.868Z,15.95
2023-05-09T01:43:08.363Z,15.98
2023-05-09T01:48:14.603Z,15.62
2023-05-09T01:53:18.699Z,15.94
2023-05-09T01:58:23.598Z,15.29
2023-05-09T02:03:28.791Z,15.93
2023-05-09T02:08:32.565Z,15.86
2023-05-09T02:13:38.328Z,15.83
2023-05-09T02:18:43.161Z,15.84
2023-05-09T02:23:46.731Z,15.54
2023-05-09T02:28:52.010Z,15.80
2023-05-09T02:33:57.889Z,15.65
2023-05-09T02:39:02.196Z,15.44
2023-05-09T02:44:06.301Z,15.21
2023-05-09T02:49:19.565Z,15.58
2023-05-09T02:54:30.622Z,15.51
2023-05-09T02:59:34.316Z,15.33
2023-05-09T03:04:41.178Z,15.66
2023-05-09T03:09:44.703Z,15.04
2023-05-09T03:14:48.705Z,15.19
2023-05-09T03:19:53.602Z,15.57
2023-05-09T03:24:57.556Z,15.09
2023-05-09T03:30:01.111Z,15.15
2023-05-09T03:35:06.613Z,15.52
2023-05-09T03:40:11.208Z,15.00
2023-05-09T03:45:25.028Z,15.44
2023-05-09T03:50:30.332Z,15.47
2023-05-09T03:55:35.413Z,15.26
2023-05-09T04:00:39.318Z,15.43
2023-05-09T04:05:50.145Z,15.45
2023-05-09T04:11:03.429Z,15.25
2023-05-09T04:16:07.285Z,15.43
2023-05-09T04:21:12.849Z,14.25
2023-05-09T04:26:18.262Z,15.37
2023-05-09T04:31:26.468Z,15.33
2023-05-09T04:36:31.851Z,15.35
2023-05-09T04:41:35.755Z,15.32
2023-05-09T04:46:39.516Z,15.34
2023-05-09T04:51:45.229Z,15.38
2023-05-09T04:56:50.603Z,15.37
2023-05-09T05:01:54.839Z,15.38
2023-05-09T05:06:59.859Z,14.91
2023-05-09T05:12:09.134Z,15.41
2023-05-09T05:17:13.804Z,15.39
2023-05-09T05:22:18.664Z,13.44
2023-05-09T05:27:23.669Z,15.31
2023-05-09T05:32:28.103Z,15.50
2023-05-09T05:37:33.275Z,15.18
2023-05-09T05:42:37.623Z,15.57
2023-05-09T05:47:41.372Z,15.63
2023-05-09T05:52:46.850Z,13.90
2023-05-09T05:57:52.327Z,15.40
2023-05-09T06:02:56.569Z,15.61
2023-05-09T06:08:11.450Z,15.91
2023-05-09T06:13:14.990Z,15.76
2023-05-09T06:18:23.802Z,15.69
2023-05-09T06:23:28.592Z,16.20
2023-05-09T06:28:32.088Z,15.12
2023-05-09T06:33:35.471Z,16.15
2023-05-09T06:38:40.849Z,16.51
2023-05-09T06:43:44.302Z,16.20
2023-05-09T06:48:48.142Z,15.95
2023-05-09T06:53:53.263Z,16.01
2023-05-09T06:58:56.804Z,16.82
2023-05-09T07:04:00.305Z,16.92
2023-05-09T07:09:05.412Z,16.54
2023-05-09T07:14:08.771Z,17.17
2023-05-09T07:19:12.539Z,17.06
2023-05-09T07:24:17.428Z,17.24
2023-05-09T07:29:20.872Z,17.49
2023-05-09T07:34:25.383Z,17.61
2023-05-09T07:39:30.288Z,17.75
2023-05-09T07:44:33.635Z,17.62
2023-05-09T07:49:37.236Z,17.95
2023-05-09T07:54:42.071Z,18.10
2023-05-09T07:59:45.533Z,18.08
2023-05-09T08:04:49.346Z,18.42
2023-05-09T08:09:54.143Z,18.41
2023-05-09T08:14:57.551Z,18.75
2023-05-09T08:20:01.141Z,18.46
2023-05-09T08:25:06.661Z,18.98
2023-05-09T08:30:11.018Z,18.86
2023-05-09T08:35:14.802Z,18.36
2023-05-09T08:40:20.121Z,19.46
2023-05-09T08:45:27.596Z,19.75
2023-05-09T08:50:31.618Z,19.90
2023-05-09T08:55:36.555Z,18.51
2023-05-09T09:00:42.381Z,20.19
2023-05-09T09:05:47.849Z,20.34
2023-05-09T09:10:53.167Z,20.31
2023-05-09T09:16:00.233Z,20.80
2023-05-09T09:21:08.134Z,20.54
2023-05-09T09:26:13.343Z,21.14
2023-05-09T09:31:24.347Z,20.91
2023-05-09T09:36:29.072Z,21.33
2023-05-09T09:41:35.203Z,21.17
2023-05-09T09:46:46.715Z,21.37
2023-05-09T09:51:54.877Z,21.11
2023-05-09T09:56:59.785Z,21.32
2023-05-09T10:02:07.646Z,22.04
2023-05-09T10:07:14.819Z,21.99
2023-05-09T10:12:23.494Z,21.49
2023-05-09T10:17:27.750Z,22.60
2023-05-09T10:22:33.404Z,22.88
2023-05-09T10:27:41.234Z,22.93
2023-05-09T10:32:50.603Z,23.21
2023-05-09T10:37:57.498Z,23.22
2023-05-09T10:43:02.893Z,23.08
2023-05-09T10:48:09.002Z,23.18
2023-05-09T10:53:14.511Z,23.27
2023-05-09T10:58:27.506Z,23.64
2023-05-09T11:03:54.596Z,23.77
2023-05-09T11:08:58.105Z,22.94
2023-05-09T11:14:03.212Z,23.73
2023-05-09T11:19:07.059Z,23.55
2023-05-09T11:24:17.963Z,24.02
2023-05-09T11:29:28.109Z,23.69
2023-05-09T11:34:31.592Z,24.12
2023-05-09T11:39:35.100Z,24.06
2023-05-09T11:44:41.141Z,24.39
2023-05-09T11:49:44.702Z,24.44
2023-05-09T11:54:48.643Z,24.40
2023-05-09T11:59:54.221Z,24.47
2023-05-09T12:04:57.800Z,24.33
2023-05-09T12:10:02.840Z,25.03
2023-05-09T12:15:10.903Z,25.31
2023-05-09T12:20:14.902Z,25.23
2023-05-09T12:25:18.503Z,25.05
2023-05-09T12:30:23.737Z,24.92
2023-05-09T12:35:27.184Z,25.43
2023-05-09T12:40:30.607Z,25.41
2023-05-09T12:45:35.484Z,24.81
2023-05-09T12:50:38.909Z,25.32
2023-05-09T12:55:42.387Z,25.12
2023-05-09T13:00:47.503Z,25.72
2023-05-09T13:05:58.896Z,25.87
2023-05-09T13:11:14.804Z,26.00
2023-05-09T13:16:20.095Z,26.10
2023-05-09T13:21:23.479Z,26.13
2023-05-09T13:26:28.356Z,25.84
2023-05-09T13:31:33.095Z,26.07
2023-05-09T13:36:36.515Z,25.96
2023-05-09T13:41:39.919Z,25.93
2023-05-09T13:46:44.791Z,25.79
2023-05-09T13:51:48.665Z,25.65
2023-05-09T13:56:52.882Z,25.16
2023-05-09T14:02:00.018Z,25.34
2023-05-09T14:07:04.893Z,26.23
2023-05-09T14:12:10.115Z,26.25
2023-05-09T14:17:15.060Z,25.96
2023-05-09T14:22:18.492Z,26.04
2023-05-09T14:27:21.945Z,25.92
2023-05-09T14:32:27.205Z,25.69
2023-05-09T14:37:30.614Z,25.53
2023-05-09T14:42:34.076Z,25.21
2023-05-09T14:47:38.978Z,25.46
2023-05-09T14:52:44.081Z,25.32
2023-05-09T14:57:47.623Z,24.51
2023-05-09T15:02:52.400Z,24.92
2023-05-09T15:07:55.870Z,24.12
2023-05-09T15:12:59.287Z,24.74
2023-05-09T15:18:04.122Z,25.12
2023-05-09T15:23:08.542Z,24.88
2023-05-09T15:28:12.173Z,24.88
2023-05-09T15:33:17.655Z,25.06
2023-05-09T15:38:21.154Z,25.20
2023-05-09T15:43:24.651Z,25.18
2023-05-09T15:48:31.826Z,25.05
2023-05-09T15:53:35.368Z,24.65
2023-05-09T15:58:39.111Z,24.34
2023-05-09T16:03:44.117Z,24.51
2023-05-09T16:08:47.688Z,23.65
2023-05-09T16:13:51.208Z,23.79
2023-05-09T16:18:56.130Z,23.28
2023-05-09T16:24:00.191Z,23.52
2023-05-09T16:29:03.698Z,23.76
2023-05-09T16:34:08.597Z,23.75
2023-05-09T16:39:11.986Z,23.33
2023-05-09T16:44:15.541Z,23.23
2023-05-09T16:49:20.399Z,23.42
2023-05-09T16:54:23.720Z,23.27
2023-05-09T16:59:27.249Z,23.06
2023-05-09T17:04:32.093Z,22.48
2023-05-09T17:09:43.660Z,22.77
2023-05-09T17:14:48.069Z,22.30
2023-05-09T17:19:55.870Z,22.67
2023-05-09T17:24:59.518Z,22.57
2023-05-09T17:30:04.091Z,22.16
2023-05-09T17:35:10.218Z,22.13
2023-05-09T17:40:15.709Z,22.05
2023-05-09T17:45:20.678Z,21.54
2023-05-09T17:50:25.672Z,21.36
2023-05-09T17:55:29.160Z,20.97
2023-05-09T18:00:32.635Z,20.26
2023-05-09T18:05:37.452Z,20.26
2023-05-09T18:10:41.478Z,20.04
2023-05-09T18:15:45.301Z,19.46
2023-05-09T18:20:51.458Z,19.98
2023-05-09T18:25:56.044Z,20.13
2023-05-09T18:31:01.400Z,19.91
2023-05-09T18:36:07.104Z,20.11
2023-05-09T18:41:11.983Z,20.09
2023-05-09T18:46:18.112Z,18.52
2023-05-09T18:51:23.148Z,20.02
2023-05-09T18:56:26.593Z,20.15
2023-05-09T19:01:30.262Z,19.93
2023-05-09T19:06:35.183Z,19.91
2023-05-09T19:11:38.676Z,19.40
2023-05-09T19:16:42.371Z,19.71
2023-05-09T19:21:49.041Z,19.47
2023-05-09T19:26:53.476Z,19.19
2023-05-09T19:31:58.267Z,19.14
2023-05-09T19:37:03.107Z,19.22
2023-05-09T19:42:06.539Z,19.10
2023-05-09T19:47:10.141Z,18.72
2023-05-09T19:52:15.018Z,18.43
2023-05-09T19:57:18.726Z,18.76
2023-05-09T20:02:22.285Z,18.72
2023-05-09T20:07:27.221Z,18.80
2023-05-09T20:12:30.761Z,18.23
2023-05-09T20:17:34.281Z,18.87
2023-05-09T20:22:40.788Z,18.41
2023-05-09T20:27:57.475Z,18.87
2023-05-09T20:33:01.296Z,18.87
2023-05-09T20:38:06.280Z,18.90
2023-05-09T20:43:09.811Z,18.52
2023-05-09T20:48:13.738Z,18.86
2023-05-09T20:53:22.421Z,18.62
2023-05-09T20:58:26.153Z,18.61
2023-05-09T21:03:29.787Z,18.57
2023-05-09T21:08:34.708Z,18.47
2023-05-09T21:13:38.103Z,18.22
2023-05-09T21:19:07.155Z,18.28
2023-05-09T21:24:12.011Z,18.65
2023-05-09T21:29:15.589Z,18.54
2023-05-09T21:34:21.217Z,18.41
2023-05-09T21:40:29.184Z,18.56
2023-05-09T21:45:46.544Z,18.08
2023-05-09T21:50:49.974Z,18.25
2023-05-09T21:55:54.801Z,17.46
2023-05-09T22:00:58.433Z,18.15
2023-05-09T22:06:01.804Z,17.74
2023-05-09T22:11:07.738Z,18.08
2023-05-09T22:16:11.728Z,17.76
2023-05-09T22:21:15.218Z,17.61
2023-05-09T22:26:20.175Z,17.61
2023-05-09T22:31:23.776Z,16.44
2023-05-09T22:36:27.404Z,15.98
2023-05-09T22:41:32.334Z,17.49
2023-05-09T22:46:35.838Z,17.63
2023-05-09T22:51:39.334Z,17.31
2023-05-09T22:56:44.396Z,17.57
2023-05-09T23:01:47.860Z,17.15
2023-05-09T23:06:51.267Z,17.22
2023-05-09T23:11:56.102Z,17.38
2023-05-09T23:16:59.559Z,17.13
2023-05-09T23:22:03.037Z,17.08
2023-05-09T23:27:07.870Z,17.22
2023-05-09T23:32:11.250Z,17.08
2023-05-09T23:37:14.682Z,16.88
2023-05-09T23:42:19.508Z,16.21
2023-05-09T23:47:22.987Z,16.32
2023-05-09T23:52:26.564Z,15.97
2023-05-09T23:57:33.497Z,13.99
